sensor_id;sensor_type;location;lat;lon;timestamp;P1;durP1;ratioP1;P2;durP2;ratioP2
67160;SDS011;54088;52.238;21.104;2022-08-18T00:02:25;21.13;;;19.13;;
67160;SDS011;54088;52.238;21.104;2022-08-18T00:04:53;23.08;;;20.58;;
67160;SDS011;54088;52.238;21.104;2022-08-18T00:07:21;21.83;;;19.65;;
67160;SDS011;54088;52.238;21.104;2022-08-18T00:09:49;21.90;;;19.85;;
67160;SDS011;54088;52.238;21.104;2022-08-18T00:12:17;24.20;;;19.55;;
67160;SDS011;54088;52.238;21.104;2022-08-18T00:14:45;21.88;;;19.77;;
67160;SDS011;54088;52.238;21.104;2022-08-18T00:17:12;20.88;;;18.65;;
67160;SDS011;54088;52.238;21.104;2022-08-18T00:19:39;21.35;;;19.15;;
67160;SDS011;54088;52.238;21.104;2022-08-18T00:22:05;20.70;;;18.58;;
67160;SDS011;54088;52.238;21.104;2022-08-18T00:24:31;22.60;;;18.73;;
67160;SDS011;54088;52.238;21.104;2022-08-18T00:26:57;22.35;;;18.45;;
67160;SDS011;54088;52.238;21.104;2022-08-18T00:29:23;19.85;;;17.98;;
67160;SDS011;54088;52.238;21.104;2022-08-18T00:31:49;22.50;;;19.92;;
67160;SDS011;54088;52.238;21.104;2022-08-18T00:34:15;20.95;;;19.10;;
67160;SDS011;54088;52.238;21.104;2022-08-18T00:36:41;21.73;;;19.52;;
67160;SDS011;54088;52.238;21.104;2022-08-18T00:39:07;22.27;;;19.92;;
67160;SDS011;54088;52.238;21.104;2022-08-18T00:41:33;21.88;;;19.67;;
67160;SDS011;54088;52.238;21.104;2022-08-18T00:43:59;21.35;;;19.30;;
67160;SDS011;54088;52.238;21.104;2022-08-18T00:46:28;21.73;;;19.52;;
67160;SDS011;54088;52.238;21.104;2022-08-18T00:48:57;22.75;;;18.85;;
67160;SDS011;54088;52.238;21.104;2022-08-18T00:56:27;20.90;;;19.00;;
67160;SDS011;54088;52.238;21.104;2022-08-18T00:59:06;21.92;;;19.52;;
67160;SDS011;54088;52.238;21.104;2022-08-18T01:01:36;22.10;;;19.02;;
67160;SDS011;54088;52.238;21.104;2022-08-18T01:04:14;21.08;;;18.98;;
67160;SDS011;54088;52.238;21.104;2022-08-18T01:06:51;22.65;;;20.00;;
67160;SDS011;54088;52.238;21.104;2022-08-18T01:09:20;22.55;;;20.00;;
67160;SDS011;54088;52.238;21.104;2022-08-18T01:11:46;22.52;;;20.17;;
67160;SDS011;54088;52.238;21.104;2022-08-18T01:14:12;22.25;;;19.98;;
67160;SDS011;54088;52.238;21.104;2022-08-18T01:16:43;21.65;;;19.35;;
67160;SDS011;54088;52.238;21.104;2022-08-18T01:19:28;21.95;;;19.67;;
67160;SDS011;54088;52.238;21.104;2022-08-18T01:22:36;27.40;;;20.65;;
67160;SDS011;54088;52.238;21.104;2022-08-18T01:25:14;20.27;;;18.42;;
67160;SDS011;54088;52.238;21.104;2022-08-18T01:27:59;22.52;;;20.35;;
67160;SDS011;54088;52.238;21.104;2022-08-18T01:30:26;22.33;;;20.10;;
67160;SDS011;54088;52.238;21.104;2022-08-18T01:32:53;22.73;;;20.45;;
67160;SDS011;54088;52.238;21.104;2022-08-18T01:35:19;22.65;;;20.35;;
67160;SDS011;54088;52.238;21.104;2022-08-18T01:37:47;21.90;;;19.83;;
67160;SDS011;54088;52.238;21.104;2022-08-18T01:40:14;21.58;;;19.48;;
67160;SDS011;54088;52.238;21.104;2022-08-18T01:42:41;22.70;;;19.65;;
67160;SDS011;54088;52.238;21.104;2022-08-18T01:45:10;22.25;;;20.15;;
67160;SDS011;54088;52.238;21.104;2022-08-18T01:47:39;22.42;;;20.30;;
67160;SDS011;54088;52.238;21.104;2022-08-18T01:50:06;23.33;;;20.95;;
67160;SDS011;54088;52.238;21.104;2022-08-18T01:52:32;21.67;;;19.45;;
67160;SDS011;54088;52.238;21.104;2022-08-18T01:54:59;23.27;;;19.83;;
67160;SDS011;54088;52.238;21.104;2022-08-18T01:57:25;22.45;;;20.17;;
67160;SDS011;54088;52.238;21.104;2022-08-18T01:59:52;23.35;;;21.10;;
67160;SDS011;54088;52.238;21.104;2022-08-18T02:02:21;23.25;;;20.95;;
67160;SDS011;54088;52.238;21.104;2022-08-18T02:04:53;24.33;;;21.75;;
67160;SDS011;54088;52.238;21.104;2022-08-18T02:07:23;24.55;;;22.17;;
67160;SDS011;54088;52.238;21.104;2022-08-18T02:09:49;22.77;;;20.63;;
67160;SDS011;54088;52.238;21.104;2022-08-18T02:12:15;26.88;;;21.13;;
67160;SDS011;54088;52.238;21.104;2022-08-18T02:14:41;24.23;;;21.58;;
67160;SDS011;54088;52.238;21.104;2022-08-18T02:17:07;24.88;;;21.88;;
67160;SDS011;54088;52.238;21.104;2022-08-18T02:19:36;24.73;;;22.33;;
67160;SDS011;54088;52.238;21.104;2022-08-18T02:22:08;25.08;;;22.45;;
67160;SDS011;54088;52.238;21.104;2022-08-18T02:24:36;24.17;;;21.70;;
67160;SDS011;54088;52.238;21.104;2022-08-18T02:27:01;24.73;;;22.13;;
67160;SDS011;54088;52.238;21.104;2022-08-18T02:29:28;25.88;;;23.40;;
67160;SDS011;54088;52.238;21.104;2022-08-18T02:31:53;23.92;;;21.70;;
67160;SDS011;54088;52.238;21.104;2022-08-18T02:34:19;25.67;;;22.48;;
67160;SDS011;54088;52.238;21.104;2022-08-18T02:36:46;24.88;;;22.38;;
67160;SDS011;54088;52.238;21.104;2022-08-18T02:39:12;25.95;;;23.25;;
67160;SDS011;54088;52.238;21.104;2022-08-18T02:41:38;25.25;;;22.98;;
67160;SDS011;54088;52.238;21.104;2022-08-18T02:44:05;24.33;;;21.92;;
67160;SDS011;54088;52.238;21.104;2022-08-18T02:46:32;24.63;;;21.98;;
67160;SDS011;54088;52.238;21.104;2022-08-18T02:48:58;25.48;;;23.05;;
67160;SDS011;54088;52.238;21.104;2022-08-18T02:51:24;24.65;;;22.20;;
67160;SDS011;54088;52.238;21.104;2022-08-18T02:53:50;24.23;;;21.90;;
67160;SDS011;54088;52.238;21.104;2022-08-18T02:56:26;24.77;;;22.52;;
67160;SDS011;54088;52.238;21.104;2022-08-18T02:58:57;23.40;;;21.00;;
67160;SDS011;54088;52.238;21.104;2022-08-18T03:01:26;24.77;;;22.08;;
67160;SDS011;54088;52.238;21.104;2022-08-18T03:03:54;22.60;;;20.30;;
67160;SDS011;54088;52.238;21.104;2022-08-18T03:06:23;24.67;;;22.05;;
67160;SDS011;54088;52.238;21.104;2022-08-18T03:08:50;23.77;;;21.48;;
67160;SDS011;54088;52.238;21.104;2022-08-18T03:11:17;23.35;;;21.13;;
67160;SDS011;54088;52.238;21.104;2022-08-18T03:13:46;24.88;;;22.58;;
67160;SDS011;54088;52.238;21.104;2022-08-18T03:16:12;24.55;;;21.95;;
67160;SDS011;54088;52.238;21.104;2022-08-18T03:18:38;24.73;;;22.33;;
67160;SDS011;54088;52.238;21.104;2022-08-18T03:21:10;23.48;;;21.33;;
67160;SDS011;54088;52.238;21.104;2022-08-18T03:23:39;25.48;;;22.75;;
67160;SDS011;54088;52.238;21.104;2022-08-18T03:26:09;24.92;;;22.33;;
67160;SDS011;54088;52.238;21.104;2022-08-18T03:28:43;27.30;;;24.40;;
67160;SDS011;54088;52.238;21.104;2022-08-18T03:31:11;26.95;;;24.08;;
67160;SDS011;54088;52.238;21.104;2022-08-18T03:33:38;26.85;;;24.05;;
67160;SDS011;54088;52.238;21.104;2022-08-18T03:36:07;28.85;;;25.85;;
67160;SDS011;54088;52.238;21.104;2022-08-18T03:38:39;29.77;;;26.67;;
67160;SDS011;54088;52.238;21.104;2022-08-18T03:41:06;32.83;;;29.35;;
67160;SDS011;54088;52.238;21.104;2022-08-18T03:43:32;31.02;;;27.90;;
67160;SDS011;54088;52.238;21.104;2022-08-18T03:46:00;27.63;;;24.92;;
67160;SDS011;54088;52.238;21.104;2022-08-18T03:48:27;28.75;;;25.98;;
67160;SDS011;54088;52.238;21.104;2022-08-18T03:50:53;30.55;;;25.92;;
67160;SDS011;54088;52.238;21.104;2022-08-18T03:53:19;27.98;;;25.15;;
67160;SDS011;54088;52.238;21.104;2022-08-18T03:55:45;27.00;;;24.35;;
67160;SDS011;54088;52.238;21.104;2022-08-18T03:58:10;25.63;;;22.88;;
67160;SDS011;54088;52.238;21.104;2022-08-18T04:00:39;26.70;;;24.08;;
67160;SDS011;54088;52.238;21.104;2022-08-18T04:03:05;26.92;;;23.15;;
67160;SDS011;54088;52.238;21.104;2022-08-18T04:05:32;25.88;;;23.13;;
67160;SDS011;54088;52.238;21.104;2022-08-18T04:07:59;27.63;;;24.65;;
67160;SDS011;54088;52.238;21.104;2022-08-18T04:10:26;25.75;;;23.08;;
67160;SDS011;54088;52.238;21.104;2022-08-18T04:12:52;25.40;;;22.55;;
67160;SDS011;54088;52.238;21.104;2022-08-18T04:15:18;25.48;;;22.77;;
67160;SDS011;54088;52.238;21.104;2022-08-18T04:17:44;25.05;;;22.40;;
67160;SDS011;54088;52.238;21.104;2022-08-18T04:20:12;25.23;;;22.63;;
67160;SDS011;54088;52.238;21.104;2022-08-18T04:22:38;24.80;;;22.35;;
67160;SDS011;54088;52.238;21.104;2022-08-18T04:25:04;25.50;;;22.92;;
67160;SDS011;54088;52.238;21.104;2022-08-18T04:27:33;24.17;;;21.77;;
67160;SDS011;54088;52.238;21.104;2022-08-18T04:29:59;25.55;;;22.92;;
67160;SDS011;54088;52.238;21.104;2022-08-18T04:32:25;25.95;;;23.58;;
67160;SDS011;54088;52.238;21.104;2022-08-18T04:34:51;28.13;;;21.95;;
67160;SDS011;54088;52.238;21.104;2022-08-18T04:37:17;24.02;;;21.67;;
67160;SDS011;54088;52.238;21.104;2022-08-18T04:39:43;22.98;;;20.65;;
67160;SDS011;54088;52.238;21.104;2022-08-18T04:42:09;22.33;;;19.92;;
67160;SDS011;54088;52.238;21.104;2022-08-18T04:44:35;21.40;;;19.40;;
67160;SDS011;54088;52.238;21.104;2022-08-18T04:47:03;20.60;;;18.65;;
67160;SDS011;54088;52.238;21.104;2022-08-18T04:49:31;19.25;;;17.23;;
67160;SDS011;54088;52.238;21.104;2022-08-18T04:51:58;19.70;;;17.75;;
67160;SDS011;54088;52.238;21.104;2022-08-18T04:54:42;19.98;;;17.65;;
67160;SDS011;54088;52.238;21.104;2022-08-18T04:57:12;19.08;;;16.77;;
67160;SDS011;54088;52.238;21.104;2022-08-18T04:59:41;18.67;;;16.77;;
67160;SDS011;54088;52.238;21.104;2022-08-18T05:02:08;17.40;;;15.73;;
67160;SDS011;54088;52.238;21.104;2022-08-18T05:04:35;17.50;;;15.80;;
67160;SDS011;54088;52.238;21.104;2022-08-18T05:07:07;18.67;;;16.67;;
67160;SDS011;54088;52.238;21.104;2022-08-18T05:09:34;18.55;;;16.73;;
67160;SDS011;54088;52.238;21.104;2022-08-18T05:12:01;20.38;;;17.88;;
67160;SDS011;54088;52.238;21.104;2022-08-18T05:14:28;19.58;;;17.48;;
67160;SDS011;54088;52.238;21.104;2022-08-18T05:17:02;18.70;;;17.00;;
67160;SDS011;54088;52.238;21.104;2022-08-18T05:19:29;17.58;;;15.77;;
67160;SDS011;54088;52.238;21.104;2022-08-18T05:21:56;17.95;;;16.13;;
67160;SDS011;54088;52.238;21.104;2022-08-18T05:24:23;18.27;;;15.63;;
67160;SDS011;54088;52.238;21.104;2022-08-18T05:26:51;18.77;;;16.98;;
67160;SDS011;54088;52.238;21.104;2022-08-18T05:29:18;18.50;;;16.58;;
67160;SDS011;54088;52.238;21.104;2022-08-18T05:31:47;20.40;;;16.17;;
67160;SDS011;54088;52.238;21.104;2022-08-18T05:34:15;19.08;;;17.33;;
67160;SDS011;54088;52.238;21.104;2022-08-18T05:41:43;20.77;;;18.08;;
67160;SDS011;54088;52.238;21.104;2022-08-18T05:44:17;18.15;;;16.30;;
67160;SDS011;54088;52.238;21.104;2022-08-18T05:46:55;17.40;;;15.57;;
67160;SDS011;54088;52.238;21.104;2022-08-18T05:49:28;17.75;;;16.05;;
67160;SDS011;54088;52.238;21.104;2022-08-18T05:52:39;18.45;;;15.57;;
67160;SDS011;54088;52.238;21.104;2022-08-18T05:54:59;17.17;;;15.50;;
67160;SDS011;54088;52.238;21.104;2022-08-18T05:57:53;18.52;;;16.00;;
67160;SDS011;54088;52.238;21.104;2022-08-18T06:00:26;17.20;;;15.40;;
67160;SDS011;54088;52.238;21.104;2022-08-18T06:02:57;18.40;;;14.93;;
67160;SDS011;54088;52.238;21.104;2022-08-18T06:05:35;16.77;;;15.18;;
67160;SDS011;54088;52.238;21.104;2022-08-18T06:08:23;20.58;;;14.90;;
67160;SDS011;54088;52.238;21.104;2022-08-18T06:10:52;16.23;;;14.13;;
67160;SDS011;54088;52.238;21.104;2022-08-18T06:13:19;18.05;;;15.40;;
67160;SDS011;54088;52.238;21.104;2022-08-18T06:29:59;14.45;;;12.95;;
67160;SDS011;54088;52.238;21.104;2022-08-18T06:52:20;12.85;;;10.63;;
67160;SDS011;54088;52.238;21.104;2022-08-18T06:54:50;16.48;;;10.60;;
67160;SDS011;54088;52.238;21.104;2022-08-18T07:00:34;13.77;;;9.85;;
67160;SDS011;54088;52.238;21.104;2022-08-18T07:02:42;10.80;;;9.07;;
67160;SDS011;54088;52.238;21.104;2022-08-18T07:05:32;14.82;;;8.93;;
67160;SDS011;54088;52.238;21.104;2022-08-18T07:08:03;10.40;;;8.80;;
67160;SDS011;54088;52.238;21.104;2022-08-18T07:10:34;11.63;;;7.97;;
67160;SDS011;54088;52.238;21.104;2022-08-18T07:13:20;13.05;;;8.38;;
67160;SDS011;54088;52.238;21.104;2022-08-18T07:15:50;14.52;;;8.85;;
67160;SDS011;54088;52.238;21.104;2022-08-18T07:18:20;10.07;;;7.78;;
67160;SDS011;54088;52.238;21.104;2022-08-18T07:20:53;10.48;;;7.10;;
67160;SDS011;54088;52.238;21.104;2022-08-18T07:23:43;11.95;;;8.32;;
67160;SDS011;54088;52.238;21.104;2022-08-18T07:26:22;8.65;;;7.18;;
67160;SDS011;54088;52.238;21.104;2022-08-18T07:28:48;13.43;;;7.20;;
67160;SDS011;54088;52.238;21.104;2022-08-18T07:32:02;10.70;;;7.07;;
67160;SDS011;54088;52.238;21.104;2022-08-18T07:34:08;12.32;;;6.70;;
67160;SDS011;54088;52.238;21.104;2022-08-18T07:36:42;10.55;;;7.45;;
67160;SDS011;54088;52.238;21.104;2022-08-18T07:39:17;11.30;;;7.53;;
67160;SDS011;54088;52.238;21.104;2022-08-18T07:47:54;10.93;;;6.95;;
67160;SDS011;54088;52.238;21.104;2022-08-18T07:49:58;13.00;;;8.32;;
67160;SDS011;54088;52.238;21.104;2022-08-18T07:52:28;11.52;;;8.00;;
67160;SDS011;54088;52.238;21.104;2022-08-18T07:54:58;12.07;;;7.65;;
67160;SDS011;54088;52.238;21.104;2022-08-18T08:01:02;10.82;;;7.68;;
67160;SDS011;54088;52.238;21.104;2022-08-18T08:06:53;12.48;;;7.45;;
67160;SDS011;54088;52.238;21.104;2022-08-18T08:14:50;12.93;;;8.50;;
67160;SDS011;54088;52.238;21.104;2022-08-18T08:17:38;12.63;;;8.15;;
67160;SDS011;54088;52.238;21.104;2022-08-18T08:33:46;12.18;;;8.13;;
67160;SDS011;54088;52.238;21.104;2022-08-18T08:38:58;10.35;;;7.85;;
67160;SDS011;54088;52.238;21.104;2022-08-18T08:41:32;13.30;;;6.90;;
67160;SDS011;54088;52.238;21.104;2022-08-18T08:44:19;12.38;;;7.70;;
67160;SDS011;54088;52.238;21.104;2022-08-18T08:55:05;8.55;;;7.32;;
67160;SDS011;54088;52.238;21.104;2022-08-18T08:57:40;9.43;;;7.32;;
67160;SDS011;54088;52.238;21.104;2022-08-18T09:00:11;10.07;;;7.45;;
67160;SDS011;54088;52.238;21.104;2022-08-18T09:05:36;10.90;;;7.07;;
67160;SDS011;54088;52.238;21.104;2022-08-18T09:24:39;11.38;;;7.03;;
67160;SDS011;54088;52.238;21.104;2022-08-18T09:27:14;10.88;;;7.20;;
67160;SDS011;54088;52.238;21.104;2022-08-18T09:40:49;11.85;;;7.68;;
67160;SDS011;54088;52.238;21.104;2022-08-18T09:43:58;10.93;;;7.43;;
67160;SDS011;54088;52.238;21.104;2022-08-18T09:54:50;10.07;;;8.32;;
67160;SDS011;54088;52.238;21.104;2022-08-18T10:05:20;9.02;;;6.25;;
67160;SDS011;54088;52.238;21.104;2022-08-18T10:07:47;9.00;;;6.67;;
67160;SDS011;54088;52.238;21.104;2022-08-18T10:20:49;11.18;;;6.28;;
67160;SDS011;54088;52.238;21.104;2022-08-18T10:23:58;10.30;;;7.03;;
67160;SDS011;54088;52.238;21.104;2022-08-18T10:29:09;10.27;;;7.15;;
67160;SDS011;54088;52.238;21.104;2022-08-18T10:37:01;9.32;;;7.82;;
67160;SDS011;54088;52.238;21.104;2022-08-18T10:39:51;10.82;;;8.45;;
67160;SDS011;54088;52.238;21.104;2022-08-18T10:42:26;9.80;;;7.03;;
67160;SDS011;54088;52.238;21.104;2022-08-18T10:47:58;9.07;;;7.43;;
67160;SDS011;54088;52.238;21.104;2022-08-18T10:50:26;10.65;;;7.22;;
67160;SDS011;54088;52.238;21.104;2022-08-18T11:07:17;9.45;;;7.65;;
67160;SDS011;54088;52.238;21.104;2022-08-18T11:09:51;8.75;;;7.18;;
67160;SDS011;54088;52.238;21.104;2022-08-18T11:20:37;9.63;;;7.72;;
67160;SDS011;54088;52.238;21.104;2022-08-18T11:23:10;10.85;;;7.57;;
67160;SDS011;54088;52.238;21.104;2022-08-18T11:25:38;9.25;;;7.15;;
67160;SDS011;54088;52.238;21.104;2022-08-18T11:28:18;8.70;;;7.80;;
67160;SDS011;54088;52.238;21.104;2022-08-18T11:30:49;10.85;;;8.05;;
67160;SDS011;54088;52.238;21.104;2022-08-18T11:33:19;9.40;;;7.57;;
67160;SDS011;54088;52.238;21.104;2022-08-18T11:35:50;11.32;;;7.35;;
67160;SDS011;54088;52.238;21.104;2022-08-18T11:38:21;11.25;;;7.95;;
67160;SDS011;54088;52.238;21.104;2022-08-18T11:40:48;10.70;;;8.18;;
67160;SDS011;54088;52.238;21.104;2022-08-18T11:43:17;9.75;;;8.23;;
67160;SDS011;54088;52.238;21.104;2022-08-18T11:58:48;8.20;;;7.30;;
67160;SDS011;54088;52.238;21.104;2022-08-18T12:07:15;9.20;;;6.82;;
67160;SDS011;54088;52.238;21.104;2022-08-18T12:12:50;8.40;;;7.28;;
67160;SDS011;54088;52.238;21.104;2022-08-18T12:17:42;10.60;;;6.68;;
67160;SDS011;54088;52.238;21.104;2022-08-18T12:20:10;10.05;;;7.18;;
67160;SDS011;54088;52.238;21.104;2022-08-18T12:22:38;9.15;;;7.18;;
67160;SDS011;54088;52.238;21.104;2022-08-18T12:25:07;11.32;;;7.00;;
67160;SDS011;54088;52.238;21.104;2022-08-18T12:27:35;9.77;;;6.88;;
67160;SDS011;54088;52.238;21.104;2022-08-18T12:30:00;9.15;;;7.43;;
67160;SDS011;54088;52.238;21.104;2022-08-18T12:32:27;13.32;;;7.38;;
67160;SDS011;54088;52.238;21.104;2022-08-18T12:34:54;10.20;;;7.25;;
67160;SDS011;54088;52.238;21.104;2022-08-18T12:37:22;10.18;;;7.22;;
67160;SDS011;54088;52.238;21.104;2022-08-18T12:39:49;11.50;;;6.78;;
67160;SDS011;54088;52.238;21.104;2022-08-18T12:42:16;11.02;;;7.82;;
67160;SDS011;54088;52.238;21.104;2022-08-18T12:44:42;9.15;;;7.63;;
67160;SDS011;54088;52.238;21.104;2022-08-18T12:47:17;9.23;;;7.90;;
67160;SDS011;54088;52.238;21.104;2022-08-18T12:49:45;10.65;;;7.47;;
67160;SDS011;54088;52.238;21.104;2022-08-18T12:52:11;11.35;;;7.43;;
67160;SDS011;54088;52.238;21.104;2022-08-18T12:54:38;10.85;;;7.53;;
67160;SDS011;54088;52.238;21.104;2022-08-18T12:57:05;9.77;;;7.20;;
67160;SDS011;54088;52.238;21.104;2022-08-18T12:59:33;11.70;;;7.28;;
67160;SDS011;54088;52.238;21.104;2022-08-18T13:02:02;8.82;;;6.95;;
67160;SDS011;54088;52.238;21.104;2022-08-18T13:04:27;9.02;;;7.35;;
67160;SDS011;54088;52.238;21.104;2022-08-18T13:06:54;8.90;;;6.53;;
67160;SDS011;54088;52.238;21.104;2022-08-18T13:09:21;9.05;;;7.22;;
67160;SDS011;54088;52.238;21.104;2022-08-18T13:11:47;11.80;;;7.03;;
67160;SDS011;54088;52.238;21.104;2022-08-18T13:14:13;8.25;;;6.90;;
67160;SDS011;54088;52.238;21.104;2022-08-18T13:16:40;8.38;;;6.60;;
67160;SDS011;54088;52.238;21.104;2022-08-18T13:19:08;8.25;;;7.13;;
67160;SDS011;54088;52.238;21.104;2022-08-18T13:21:34;7.70;;;6.90;;
67160;SDS011;54088;52.238;21.104;2022-08-18T13:24:00;10.73;;;7.45;;
67160;SDS011;54088;52.238;21.104;2022-08-18T13:26:28;10.65;;;7.35;;
67160;SDS011;54088;52.238;21.104;2022-08-18T13:29:00;10.23;;;6.93;;
67160;SDS011;54088;52.238;21.104;2022-08-18T13:31:26;9.40;;;7.10;;
67160;SDS011;54088;52.238;21.104;2022-08-18T13:33:53;11.90;;;7.25;;
67160;SDS011;54088;52.238;21.104;2022-08-18T13:36:20;11.13;;;7.60;;
67160;SDS011;54088;52.238;21.104;2022-08-18T13:38:46;15.90;;;8.18;;
67160;SDS011;54088;52.238;21.104;2022-08-18T13:41:12;13.13;;;7.13;;
67160;SDS011;54088;52.238;21.104;2022-08-18T13:43:39;11.30;;;7.70;;
67160;SDS011;54088;52.238;21.104;2022-08-18T13:46:11;10.18;;;6.57;;
67160;SDS011;54088;52.238;21.104;2022-08-18T13:48:40;9.73;;;6.95;;
67160;SDS011;54088;52.238;21.104;2022-08-18T13:51:08;10.50;;;6.85;;
67160;SDS011;54088;52.238;21.104;2022-08-18T13:53:38;8.77;;;6.55;;
67160;SDS011;54088;52.238;21.104;2022-08-18T13:56:05;9.68;;;6.65;;
67160;SDS011;54088;52.238;21.104;2022-08-18T13:58:31;10.23;;;7.35;;
67160;SDS011;54088;52.238;21.104;2022-08-18T14:00:58;8.45;;;6.32;;
67160;SDS011;54088;52.238;21.104;2022-08-18T14:03:28;10.23;;;6.55;;
67160;SDS011;54088;52.238;21.104;2022-08-18T14:05:55;12.70;;;7.30;;
67160;SDS011;54088;52.238;21.104;2022-08-18T14:08:24;10.32;;;7.00;;
67160;SDS011;54088;52.238;21.104;2022-08-18T14:10:55;11.90;;;7.35;;
67160;SDS011;54088;52.238;21.104;2022-08-18T14:13:22;9.18;;;6.90;;
67160;SDS011;54088;52.238;21.104;2022-08-18T14:15:49;9.60;;;6.97;;
67160;SDS011;54088;52.238;21.104;2022-08-18T14:18:18;10.02;;;7.45;;
67160;SDS011;54088;52.238;21.104;2022-08-18T14:20:43;10.70;;;7.30;;
67160;SDS011;54088;52.238;21.104;2022-08-18T14:23:27;8.57;;;7.00;;
67160;SDS011;54088;52.238;21.104;2022-08-18T14:26:12;12.85;;;7.70;;
67160;SDS011;54088;52.238;21.104;2022-08-18T14:28:56;10.02;;;7.57;;
67160;SDS011;54088;52.238;21.104;2022-08-18T14:31:21;9.15;;;7.68;;
67160;SDS011;54088;52.238;21.104;2022-08-18T14:33:47;12.80;;;7.60;;
67160;SDS011;54088;52.238;21.104;2022-08-18T14:36:14;12.27;;;7.90;;
67160;SDS011;54088;52.238;21.104;2022-08-18T14:38:40;9.68;;;6.78;;
67160;SDS011;54088;52.238;21.104;2022-08-18T14:41:06;9.52;;;7.03;;
67160;SDS011;54088;52.238;21.104;2022-08-18T14:43:34;9.15;;;6.93;;
67160;SDS011;54088;52.238;21.104;2022-08-18T14:46:01;10.70;;;6.85;;
67160;SDS011;54088;52.238;21.104;2022-08-18T14:48:27;10.60;;;6.93;;
67160;SDS011;54088;52.238;21.104;2022-08-18T14:50:54;10.68;;;6.53;;
67160;SDS011;54088;52.238;21.104;2022-08-18T14:53:23;9.40;;;6.97;;
67160;SDS011;54088;52.238;21.104;2022-08-18T14:55:51;9.43;;;6.68;;
67160;SDS011;54088;52.238;21.104;2022-08-18T14:58:19;9.52;;;6.93;;
67160;SDS011;54088;52.238;21.104;2022-08-18T15:00:47;11.13;;;6.63;;
67160;SDS011;54088;52.238;21.104;2022-08-18T15:03:12;10.00;;;6.97;;
67160;SDS011;54088;52.238;21.104;2022-08-18T15:05:38;10.82;;;6.60;;
67160;SDS011;54088;52.238;21.104;2022-08-18T15:08:04;9.20;;;6.38;;
67160;SDS011;54088;52.238;21.104;2022-08-18T15:10:30;9.68;;;7.32;;
67160;SDS011;54088;52.238;21.104;2022-08-18T15:12:56;9.23;;;7.00;;
67160;SDS011;54088;52.238;21.104;2022-08-18T15:15:24;9.27;;;6.68;;
67160;SDS011;54088;52.238;21.104;2022-08-18T15:17:51;8.48;;;6.63;;
67160;SDS011;54088;52.238;21.104;2022-08-18T15:20:16;11.77;;;7.25;;
67160;SDS011;54088;52.238;21.104;2022-08-18T15:22:44;8.63;;;7.03;;
67160;SDS011;54088;52.238;21.104;2022-08-18T15:25:29;13.00;;;7.18;;
67160;SDS011;54088;52.238;21.104;2022-08-18T15:28:00;10.10;;;6.47;;
67160;SDS011;54088;52.238;21.104;2022-08-18T15:30:26;9.85;;;6.65;;
67160;SDS011;54088;52.238;21.104;2022-08-18T15:32:52;8.52;;;6.45;;
67160;SDS011;54088;52.238;21.104;2022-08-18T15:35:18;7.70;;;6.70;;
67160;SDS011;54088;52.238;21.104;2022-08-18T15:37:44;10.02;;;6.47;;
67160;SDS011;54088;52.238;21.104;2022-08-18T15:40:13;11.20;;;6.90;;
67160;SDS011;54088;52.238;21.104;2022-08-18T15:42:51;10.43;;;6.95;;
67160;SDS011;54088;52.238;21.104;2022-08-18T15:45:25;8.18;;;6.72;;
67160;SDS011;54088;52.238;21.104;2022-08-18T15:47:53;9.80;;;6.93;;
67160;SDS011;54088;52.238;21.104;2022-08-18T15:50:20;10.15;;;6.50;;
67160;SDS011;54088;52.238;21.104;2022-08-18T15:52:47;7.47;;;6.65;;
67160;SDS011;54088;52.238;21.104;2022-08-18T15:55:20;10.93;;;7.60;;
67160;SDS011;54088;52.238;21.104;2022-08-18T15:57:47;9.73;;;7.40;;
67160;SDS011;54088;52.238;21.104;2022-08-18T16:00:14;9.43;;;7.55;;
67160;SDS011;54088;52.238;21.104;2022-08-18T16:02:42;11.63;;;8.05;;
67160;SDS011;54088;52.238;21.104;2022-08-18T16:05:16;10.52;;;7.07;;
67160;SDS011;54088;52.238;21.104;2022-08-18T16:07:46;9.73;;;7.22;;
67160;SDS011;54088;52.238;21.104;2022-08-18T16:10:13;10.50;;;6.85;;
67160;SDS011;54088;52.238;21.104;2022-08-18T16:12:40;10.18;;;7.20;;
67160;SDS011;54088;52.238;21.104;2022-08-18T16:15:06;10.57;;;8.00;;
67160;SDS011;54088;52.238;21.104;2022-08-18T16:17:32;9.30;;;7.00;;
67160;SDS011;54088;52.238;21.104;2022-08-18T16:19:58;8.15;;;7.05;;
67160;SDS011;54088;52.238;21.104;2022-08-18T16:22:25;10.55;;;7.82;;
67160;SDS011;54088;52.238;21.104;2022-08-18T16:24:52;9.65;;;7.72;;
67160;SDS011;54088;52.238;21.104;2022-08-18T16:27:18;8.27;;;6.95;;
67160;SDS011;54088;52.238;21.104;2022-08-18T16:29:44;9.65;;;6.97;;
67160;SDS011;54088;52.238;21.104;2022-08-18T16:32:10;9.93;;;7.15;;
67160;SDS011;54088;52.238;21.104;2022-08-18T16:34:36;11.65;;;8.23;;
67160;SDS011;54088;52.238;21.104;2022-08-18T16:37:03;9.73;;;7.30;;
67160;SDS011;54088;52.238;21.104;2022-08-18T16:39:30;9.23;;;7.13;;
67160;SDS011;54088;52.238;21.104;2022-08-18T16:41:57;10.20;;;7.80;;
67160;SDS011;54088;52.238;21.104;2022-08-18T16:44:23;10.63;;;7.50;;
67160;SDS011;54088;52.238;21.104;2022-08-18T16:46:48;9.05;;;8.15;;
67160;SDS011;54088;52.238;21.104;2022-08-18T16:49:15;12.50;;;8.00;;
67160;SDS011;54088;52.238;21.104;2022-08-18T16:51:42;8.80;;;7.32;;
67160;SDS011;54088;52.238;21.104;2022-08-18T16:54:09;10.85;;;8.50;;
67160;SDS011;54088;52.238;21.104;2022-08-18T16:56:35;10.52;;;8.43;;
67160;SDS011;54088;52.238;21.104;2022-08-18T16:59:01;10.02;;;7.93;;
67160;SDS011;54088;52.238;21.104;2022-08-18T17:01:46;9.43;;;7.82;;
67160;SDS011;54088;52.238;21.104;2022-08-18T17:04:30;10.80;;;8.63;;
67160;SDS011;54088;52.238;21.104;2022-08-18T17:07:01;11.48;;;8.60;;
67160;SDS011;54088;52.238;21.104;2022-08-18T17:09:29;8.80;;;7.85;;
67160;SDS011;54088;52.238;21.104;2022-08-18T17:11:55;11.95;;;8.80;;
67160;SDS011;54088;52.238;21.104;2022-08-18T17:14:22;9.55;;;8.65;;
67160;SDS011;54088;52.238;21.104;2022-08-18T17:16:50;11.20;;;8.43;;
67160;SDS011;54088;52.238;21.104;2022-08-18T17:19:18;11.30;;;8.93;;
67160;SDS011;54088;52.238;21.104;2022-08-18T17:21:46;11.10;;;8.77;;
67160;SDS011;54088;52.238;21.104;2022-08-18T17:24:12;10.25;;;8.27;;
67160;SDS011;54088;52.238;21.104;2022-08-18T17:26:41;9.45;;;8.38;;
67160;SDS011;54088;52.238;21.104;2022-08-18T17:31:55;10.85;;;8.73;;
67160;SDS011;54088;52.238;21.104;2022-08-18T17:34:26;11.95;;;8.90;;
67160;SDS011;54088;52.238;21.104;2022-08-18T17:37:06;11.98;;;8.93;;
67160;SDS011;54088;52.238;21.104;2022-08-18T17:39:38;11.65;;;9.05;;
67160;SDS011;54088;52.238;21.104;2022-08-18T17:42:08;13.48;;;9.45;;
67160;SDS011;54088;52.238;21.104;2022-08-18T17:44:57;12.25;;;9.10;;
67160;SDS011;54088;52.238;21.104;2022-08-18T17:50:35;12.40;;;9.32;;
67160;SDS011;54088;52.238;21.104;2022-08-18T17:53:24;12.85;;;9.32;;
67160;SDS011;54088;52.238;21.104;2022-08-18T17:55:55;14.32;;;9.25;;
67160;SDS011;54088;52.238;21.104;2022-08-18T18:01:02;12.30;;;9.77;;
67160;SDS011;54088;52.238;21.104;2022-08-18T18:03:28;10.57;;;8.48;;
67160;SDS011;54088;52.238;21.104;2022-08-18T18:05:54;11.18;;;9.40;;
67160;SDS011;54088;52.238;21.104;2022-08-18T18:11:26;13.48;;;9.38;;